Please Follow Government Recommendations & Avoid Non-Essential Travel Within BC

Subpeak Weather

  • Time Avg. Air Temp Dew Point Avg. Rel Humidity Avg. 2 Min Wind Speed Max Gust Velocity MGV Time MGV Direction Avg. Spot Wind Velocity
    2021-01-21 03:20:00-15° C-17° C83%5 km/h6 km/h03:18:00S6 km/h
    02:20:00-15° C-17° C83%6 km/h7 km/h02:18:00SE6 km/h
    01:20:00-15° C-17° C83%14 km/h15 km/h01:18:00SE14 km/h
    00:20:00-15° C-17° C83%12 km/h15 km/h00:17:00SE11 km/h
    23:20:00-15° C-17° C83%6 km/h8 km/h23:20:00E6 km/h
    22:20:00-15° C-18° C83%6 km/h10 km/h22:16:00E7 km/h
    21:20:00-15° C-17° C83%0 km/h3 km/h21:18:00SW1 km/h
    20:20:00-15° C-17° C83%6 km/h9 km/h20:19:00NW5 km/h
    19:20:00-14° C-17° C83%4 km/h7 km/h19:19:00NE4 km/h
    18:20:00-14° C-16° C84%5 km/h12 km/h18:19:00NW5 km/h
    17:20:00-14° C-16° C84%8 km/h11 km/h17:16:00NW8 km/h
    16:20:00-14° C-16° C84%4 km/h12 km/h16:17:00N6 km/h
    15:20:00-13° C-15° C85%9 km/h17 km/h15:16:00NW8 km/h
    14:20:00-13° C-15° C85%17 km/h20 km/h14:19:00NW17 km/h
    13:20:00-12° C-14° C85%17 km/h19 km/h13:17:00W17 km/h
    12:20:00-12° C-14° C86%20 km/h23 km/h12:17:00W20 km/h
    11:20:00-12° C-14° C86%24 km/h26 km/h11:19:00W23 km/h
    10:20:00-12° C-13° C87%21 km/h25 km/h10:17:00W21 km/h
    09:20:00-12° C-14° C86%22 km/h25 km/h09:17:00W23 km/h
    08:20:00-13° C-14° C86%14 km/h19 km/h08:20:00W12 km/h
    07:20:00-13° C-15° C85%14 km/h16 km/h07:16:00SW14 km/h
    06:20:00-12° C-14° C86%13 km/h17 km/h06:16:00W12 km/h
    05:20:00-12° C-14° C86%21 km/h23 km/h05:17:00W21 km/h
    04:20:00-12° C-14° C86%17 km/h20 km/h04:16:00W16 km/h
  • Time Avg. Air Temp Dew Point Avg. Rel Humidity Avg. 2 Min Wind Speed Max Gust Velocity MGV Time MGV Direction Avg. Spot Wind Velocity
    2021-01-21 03:20:00-15° C-17° C83%5 km/h6 km/h03:18:00S6 km/h
    03:15:00-15° C-17° C83%5 km/h6 km/h03:12:00SE6 km/h
    03:10:00-15° C-17° C83%6 km/h7 km/h03:06:00SE6 km/h
    03:05:00-15° C-17° C83%6 km/h7 km/h03:03:00SE6 km/h
    03:00:00-15° C-17° C83%7 km/h7 km/h03:00:00SE6 km/h
    02:55:00-15° C-17° C83%6 km/h7 km/h02:53:00SE6 km/h
    02:50:00-15° C-17° C83%6 km/h7 km/h02:50:00SE6 km/h
    02:45:00-15° C-17° C83%6 km/h7 km/h02:43:00SE6 km/h
    02:40:00-15° C-17° C83%7 km/h8 km/h02:36:00S7 km/h
    02:35:00-15° C-17° C83%7 km/h8 km/h02:35:00S7 km/h
    02:30:00-15° C-17° C83%7 km/h8 km/h02:30:00S7 km/h
    02:25:00-15° C-17° C83%7 km/h8 km/h02:25:00S7 km/h
    02:20:00-15° C-17° C83%6 km/h7 km/h02:18:00SE6 km/h

Explore More

Get Revelstoke news, offers, and events via email.